createdAt,value
2023-04-18T00:00:57.213Z,50.03
2023-04-18T00:03:25.097Z,50.09
2023-04-18T00:05:52.627Z,49.99
2023-04-18T00:08:19.848Z,50.00
2023-04-18T00:10:47.435Z,49.98
2023-04-18T00:13:14.681Z,49.97
2023-04-18T00:15:43.882Z,50.04
2023-04-18T00:18:11.270Z,49.93
2023-04-18T00:20:39.322Z,50.17
2023-04-18T00:23:07.903Z,50.07
2023-04-18T00:25:35.235Z,50.10
2023-04-18T00:28:02.814Z,50.10
2023-04-18T00:30:30.159Z,50.16
2023-04-18T00:32:57.541Z,50.20
2023-04-18T00:35:25.165Z,50.21
2023-04-18T00:37:52.386Z,50.05
2023-04-18T00:40:19.919Z,50.01
2023-04-18T00:42:47.324Z,50.09
2023-04-18T00:45:14.769Z,50.13
2023-04-18T00:47:42.229Z,50.32
2023-04-18T00:50:10.904Z,50.26
2023-04-18T00:52:38.299Z,50.24
2023-04-18T00:55:07.778Z,50.32
2023-04-18T00:57:36.085Z,50.17
2023-04-18T01:00:10.009Z,50.31
2023-04-18T01:02:38.098Z,50.30
2023-04-18T01:05:06.817Z,50.16
2023-04-18T01:07:37.398Z,50.30
2023-04-18T01:10:05.250Z,50.24
2023-04-18T01:12:32.497Z,50.17
2023-04-18T01:15:00.862Z,50.13
2023-04-18T01:17:29.534Z,50.19
2023-04-18T01:19:56.999Z,50.28
2023-04-18T01:22:24.563Z,50.30
2023-04-18T01:24:51.826Z,50.17
2023-04-18T01:27:19.260Z,50.26
2023-04-18T01:29:46.631Z,50.26
2023-04-18T01:32:14.385Z,50.26
2023-04-18T01:34:41.706Z,50.14
2023-04-18T01:37:09.027Z,50.23
2023-04-18T01:39:36.346Z,50.35
2023-04-18T01:42:03.785Z,50.26
2023-04-18T01:44:31.068Z,50.40
2023-04-18T01:46:58.446Z,50.36
2023-04-18T01:49:25.789Z,50.20
2023-04-18T01:51:53.073Z,50.22
2023-04-18T01:54:22.075Z,50.32
2023-04-18T01:56:49.305Z,50.25
2023-04-18T01:59:17.180Z,50.24
2023-04-18T02:01:45.139Z,50.15
2023-04-18T02:04:12.671Z,50.38
2023-04-18T02:06:40.143Z,50.33
2023-04-18T02:09:07.398Z,50.33
2023-04-18T02:11:34.700Z,50.36
2023-04-18T02:14:03.593Z,50.32
2023-04-18T02:16:31.393Z,50.36
2023-04-18T02:18:58.833Z,50.28
2023-04-18T02:21:26.029Z,50.20
2023-04-18T02:23:53.356Z,50.30
2023-04-18T02:26:23.008Z,50.38
2023-04-18T02:28:50.433Z,50.31
2023-04-18T02:31:17.686Z,50.23
2023-04-18T02:33:47.286Z,50.18
2023-04-18T02:36:14.609Z,50.42
2023-04-18T02:38:46.105Z,50.39
2023-04-18T02:41:17.406Z,50.34
2023-04-18T02:43:45.040Z,50.41
2023-04-18T02:46:14.537Z,50.40
2023-04-18T02:48:42.791Z,50.37
2023-04-18T02:51:13.296Z,50.23
2023-04-18T02:53:40.978Z,50.32
2023-04-18T02:56:08.551Z,50.29
2023-04-18T02:59:08.169Z,50.43
2023-04-18T03:02:02.886Z,50.65
2023-04-18T03:04:30.543Z,50.65
2023-04-18T03:07:01.614Z,50.56
2023-04-18T03:09:32.726Z,50.58
2023-04-18T03:12:05.672Z,50.56
2023-04-18T03:14:34.710Z,50.72
2023-04-18T03:17:02.337Z,50.53
2023-04-18T03:19:36.462Z,50.64
2023-04-18T03:22:08.348Z,50.65
2023-04-18T03:24:39.423Z,50.64
2023-04-18T03:27:08.642Z,50.73
2023-04-18T03:29:38.553Z,50.52
2023-04-18T03:32:06.281Z,50.73
2023-04-18T03:34:33.774Z,50.62
2023-04-18T03:37:02.368Z,50.83
2023-04-18T03:39:33.601Z,50.66
2023-04-18T03:42:02.076Z,50.63
2023-04-18T03:44:29.957Z,50.76
2023-04-18T03:46:57.526Z,50.54
2023-04-18T03:49:26.154Z,50.60
2023-04-18T03:51:53.615Z,50.52
2023-04-18T03:54:20.901Z,50.72
2023-04-18T03:56:49.922Z,50.62
2023-04-18T03:59:17.252Z,50.34
2023-04-18T04:01:48.762Z,50.66
2023-04-18T04:04:16.683Z,50.67
2023-04-18T04:06:44.257Z,50.64
2023-04-18T04:09:11.717Z,50.65
2023-04-18T04:11:39.784Z,50.69
2023-04-18T04:14:09.858Z,50.56
2023-04-18T04:16:42.530Z,50.67
2023-04-18T04:19:12.195Z,50.64
2023-04-18T04:21:46.527Z,50.68
2023-04-18T04:24:16.980Z,50.76
2023-04-18T04:26:48.742Z,50.53
2023-04-18T04:29:21.485Z,50.71
2023-04-18T04:31:49.470Z,50.90
2023-04-18T04:34:26.763Z,50.66
2023-04-18T04:36:54.982Z,50.70
2023-04-18T04:39:24.061Z,50.87
2023-04-18T04:42:04.633Z,50.92
2023-04-18T04:44:41.771Z,50.69
2023-04-18T04:47:09.833Z,50.76
2023-04-18T04:49:39.431Z,50.65
2023-04-18T04:52:06.949Z,50.62
2023-04-18T04:54:34.471Z,50.58
2023-04-18T04:57:03.290Z,50.71
2023-04-18T04:59:31.502Z,50.77
2023-04-18T05:01:58.883Z,50.66
2023-04-18T05:04:26.500Z,50.94
2023-04-18T05:06:54.250Z,50.66
2023-04-18T05:09:21.597Z,50.71
2023-04-18T05:11:49.555Z,50.66
2023-04-18T05:14:17.729Z,50.79
2023-04-18T05:16:45.170Z,50.95
2023-04-18T05:19:12.462Z,50.99
2023-04-18T05:21:39.925Z,50.84
2023-04-18T05:24:07.271Z,50.80
2023-04-18T05:26:34.909Z,50.74
2023-04-18T05:29:02.257Z,50.75
2023-04-18T05:31:29.601Z,50.75
2023-04-18T05:33:57.017Z,50.80
2023-04-18T05:36:24.362Z,50.89
2023-04-18T05:38:52.802Z,50.66
2023-04-18T05:41:20.112Z,50.73
2023-04-18T05:44:01.832Z,50.84
2023-04-18T05:46:32.373Z,50.88
2023-04-18T05:48:59.773Z,50.64
2023-04-18T05:51:28.711Z,51.03
2023-04-18T05:53:56.064Z,51.15
2023-04-18T05:56:23.410Z,51.06
2023-04-18T05:58:51.474Z,51.33
2023-04-18T06:01:18.964Z,51.28
2023-04-18T06:03:46.507Z,51.16
2023-04-18T06:06:14.337Z,51.16
2023-04-18T06:08:41.798Z,51.24
2023-04-18T06:11:09.296Z,51.24
2023-04-18T06:13:37.462Z,51.18
2023-04-18T06:16:05.435Z,51.26
2023-04-18T06:18:33.120Z,51.18
2023-04-18T06:21:00.545Z,51.04
2023-04-18T06:23:27.963Z,51.24
2023-04-18T06:25:56.608Z,51.17
2023-04-18T06:28:24.276Z,51.24
2023-04-18T06:30:51.607Z,51.12
2023-04-18T06:33:18.854Z,51.18
2023-04-18T06:35:46.506Z,51.16
2023-04-18T06:38:13.861Z,51.22
2023-04-18T06:40:41.310Z,51.19
2023-04-18T06:43:08.613Z,51.23
2023-04-18T06:45:36.291Z,51.17
2023-04-18T06:48:04.452Z,51.27
2023-04-18T06:50:31.849Z,51.28
2023-04-18T06:52:59.209Z,51.27
2023-04-18T06:55:26.567Z,51.21
2023-04-18T06:57:53.876Z,51.28
2023-04-18T07:00:21.369Z,51.37
2023-04-18T07:02:48.935Z,51.17
2023-04-18T07:05:16.344Z,51.40
2023-04-18T07:07:43.702Z,51.35
2023-04-18T07:10:11.569Z,51.92
2023-04-18T07:12:39.120Z,51.96
2023-04-18T07:15:06.986Z,52.06
2023-04-18T07:17:34.409Z,51.71
2023-04-18T07:20:01.931Z,51.90
2023-04-18T07:22:29.820Z,51.86
2023-04-18T07:24:57.143Z,51.94
2023-04-18T07:27:24.395Z,52.28
2023-04-18T07:29:51.705Z,52.14
2023-04-18T07:32:18.947Z,52.38
2023-04-18T07:34:46.990Z,52.20
2023-04-18T07:37:15.183Z,52.19
2023-04-18T07:39:42.607Z,52.34
2023-04-18T07:42:11.402Z,52.45
2023-04-18T07:44:38.763Z,52.49
2023-04-18T07:47:10.025Z,51.27
2023-04-18T07:49:38.183Z,50.17
2023-04-18T07:52:05.572Z,50.09
2023-04-18T07:54:33.022Z,50.77
2023-04-18T07:57:00.888Z,51.75
2023-04-18T07:59:29.753Z,51.88
2023-04-18T08:01:57.022Z,51.85
2023-04-18T08:04:25.789Z,51.97
2023-04-18T08:06:56.514Z,51.73
2023-04-18T08:09:23.772Z,52.09
2023-04-18T08:11:51.169Z,51.81
2023-04-18T08:14:18.739Z,51.90
2023-04-18T08:16:46.234Z,51.95
2023-04-18T08:19:13.912Z,51.73
2023-04-18T08:21:41.474Z,51.56
2023-04-18T08:24:08.727Z,50.66
2023-04-18T08:26:36.012Z,50.39
2023-04-18T08:29:03.484Z,50.96
2023-04-18T08:31:31.889Z,50.30
2023-04-18T08:33:59.307Z,50.63
2023-04-18T08:36:26.806Z,51.25
2023-04-18T08:38:54.067Z,51.26
2023-04-18T08:41:24.985Z,51.45
2023-04-18T08:43:52.408Z,50.94
2023-04-18T08:46:20.041Z,50.90
2023-04-18T08:48:51.337Z,50.93
2023-04-18T08:51:18.771Z,51.04
2023-04-18T08:54:01.634Z,50.78
2023-04-18T08:56:29.802Z,50.66
2023-04-18T08:59:01.131Z,50.58
2023-04-18T09:01:52.829Z,50.65
2023-04-18T09:04:36.244Z,50.67
2023-04-18T09:07:06.056Z,50.29
2023-04-18T09:09:45.887Z,49.91
2023-04-18T09:12:22.473Z,49.57
2023-04-18T09:14:51.748Z,49.61
2023-04-18T09:17:43.587Z,49.83
2023-04-18T09:20:13.019Z,50.09
2023-04-18T09:22:50.694Z,49.94
2023-04-18T09:25:35.296Z,50.38
2023-04-18T09:28:20.981Z,49.99
2023-04-18T09:30:51.558Z,49.18
2023-04-18T09:33:34.756Z,48.99
2023-04-18T09:36:18.824Z,47.94
2023-04-18T09:38:47.462Z,48.73
2023-04-18T09:41:18.482Z,49.34
2023-04-18T09:43:48.229Z,49.35
2023-04-18T09:46:17.566Z,49.28
2023-04-18T09:48:45.105Z,48.70
2023-04-18T09:51:16.361Z,48.74
2023-04-18T09:53:47.388Z,49.00
2023-04-18T09:56:24.573Z,49.21
2023-04-18T09:58:57.107Z,48.91
2023-04-18T10:01:28.249Z,49.18
2023-04-18T10:03:57.355Z,49.03
2023-04-18T10:06:27.487Z,48.92
2023-04-18T10:08:55.662Z,48.92
2023-04-18T10:11:24.372Z,48.57
2023-04-18T10:13:57.566Z,48.24
2023-04-18T10:16:26.159Z,48.41
2023-04-18T10:18:53.491Z,48.49
2023-04-18T10:21:21.696Z,48.13
2023-04-18T10:23:49.252Z,48.47
2023-04-18T10:26:16.719Z,48.67
2023-04-18T10:28:56.854Z,48.23
2023-04-18T10:31:26.998Z,48.42
2023-04-18T10:36:30.232Z,56.15
2023-04-18T10:39:05.904Z,48.26
2023-04-18T10:41:34.378Z,55.76
2023-04-18T10:44:08.530Z,56.09
2023-04-18T10:46:37.264Z,56.49
2023-04-18T10:49:19.625Z,56.54
2023-04-18T10:51:52.636Z,54.17
2023-04-18T10:54:33.052Z,55.33
2023-04-18T10:57:04.544Z,56.47
2023-04-18T10:59:34.255Z,56.77
2023-04-18T11:02:23.247Z,56.92
2023-04-18T11:04:52.095Z,57.73
2023-04-18T11:07:20.341Z,57.74
2023-04-18T11:09:56.790Z,58.08
2023-04-18T11:12:24.085Z,58.32
2023-04-18T11:14:52.558Z,58.75
2023-04-18T11:17:23.585Z,58.82
2023-04-18T11:19:59.211Z,59.01
2023-04-18T11:22:26.931Z,59.05
2023-04-18T11:25:00.926Z,59.53
2023-04-18T11:27:29.490Z,59.77
2023-04-18T11:29:57.390Z,59.79
2023-04-18T11:32:24.843Z,60.05
2023-04-18T11:34:54.030Z,59.71
2023-04-18T11:37:21.624Z,60.48
2023-04-18T11:39:52.172Z,59.29
2023-04-18T11:42:20.002Z,60.61
2023-04-18T11:44:47.859Z,61.15
2023-04-18T11:47:29.804Z,60.94
2023-04-18T11:50:08.401Z,60.96
2023-04-18T11:52:36.894Z,60.72
2023-04-18T11:55:18.476Z,60.13
2023-04-18T11:57:53.487Z,60.32
2023-04-18T12:00:38.436Z,60.83
2023-04-18T12:03:11.853Z,60.83
2023-04-18T12:05:41.085Z,61.36
2023-04-18T12:08:09.913Z,59.72
2023-04-18T12:10:38.014Z,60.50
2023-04-18T12:13:08.926Z,59.86
2023-04-18T12:15:39.445Z,58.00
2023-04-18T12:18:10.212Z,58.66
2023-04-18T12:20:52.389Z,59.17
2023-04-18T12:23:32.616Z,58.68
2023-04-18T12:26:04.547Z,57.88
2023-04-18T12:28:32.783Z,57.31
2023-04-18T12:31:00.466Z,57.04
2023-04-18T12:33:28.075Z,58.04
2023-04-18T12:35:56.083Z,58.46
2023-04-18T12:38:24.161Z,59.12
2023-04-18T12:40:52.101Z,58.72
2023-04-18T12:43:19.781Z,57.41
2023-04-18T12:45:47.326Z,57.07
2023-04-18T12:48:14.798Z,57.04
2023-04-18T12:50:42.070Z,56.91
2023-04-18T12:53:09.436Z,56.81
2023-04-18T12:55:39.259Z,57.24
2023-04-18T12:58:06.668Z,56.60
2023-04-18T13:00:34.071Z,56.52
2023-04-18T13:03:01.602Z,55.93
2023-04-18T13:05:32.892Z,56.02
2023-04-18T13:10:32.408Z,56.28
2023-04-18T13:12:59.657Z,56.56
2023-04-18T13:15:27.829Z,55.57
2023-04-18T13:17:58.470Z,55.99
2023-04-18T13:20:26.326Z,55.51
2023-04-18T13:22:53.619Z,55.00
2023-04-18T13:25:21.815Z,55.06
2023-04-18T13:27:50.395Z,52.67
2023-04-18T13:30:18.190Z,51.96
2023-04-18T13:32:46.276Z,53.22
2023-04-18T13:35:13.912Z,53.79
2023-04-18T13:37:41.275Z,53.75
2023-04-18T13:40:09.454Z,53.85
2023-04-18T13:42:38.598Z,53.75
2023-04-18T13:45:08.558Z,54.19
2023-04-18T13:47:35.950Z,54.34
2023-04-18T13:50:03.531Z,54.75
2023-04-18T13:52:30.856Z,54.03
2023-04-18T13:54:58.112Z,54.31
2023-04-18T13:57:25.409Z,54.44
2023-04-18T13:59:52.677Z,55.17
2023-04-18T14:02:19.969Z,54.82
2023-04-18T14:04:47.585Z,54.74
2023-04-18T14:07:14.966Z,54.24
2023-04-18T14:09:42.212Z,53.24
2023-04-18T14:12:09.495Z,53.65
2023-04-18T14:14:37.009Z,54.46
2023-04-18T14:17:04.424Z,54.81
2023-04-18T14:19:32.143Z,54.55
2023-04-18T14:21:59.606Z,54.54
2023-04-18T14:24:26.987Z,54.48
2023-04-18T14:26:54.801Z,54.75
2023-04-18T14:29:22.169Z,54.35
2023-04-18T14:31:50.586Z,54.31
2023-04-18T14:34:17.855Z,54.03
2023-04-18T14:36:45.334Z,53.14
2023-04-18T14:39:13.264Z,52.99
2023-04-18T14:41:41.063Z,53.04
2023-04-18T14:44:08.457Z,52.17
2023-04-18T14:46:35.797Z,51.52
2023-04-18T14:49:03.222Z,52.94
2023-04-18T14:51:31.294Z,53.02
2023-04-18T14:53:58.643Z,51.78
2023-04-18T14:56:26.574Z,51.88
2023-04-18T14:58:53.809Z,51.70
2023-04-18T15:01:21.131Z,51.80
2023-04-18T15:03:50.781Z,51.56
2023-04-18T15:06:18.223Z,52.85
2023-04-18T15:08:45.678Z,52.02
2023-04-18T15:11:13.633Z,53.14
2023-04-18T15:13:40.969Z,54.03
2023-04-18T15:16:09.785Z,54.36
2023-04-18T15:18:37.072Z,54.52
2023-04-18T15:21:04.426Z,54.51
2023-04-18T15:23:32.066Z,54.57
2023-04-18T15:25:59.483Z,54.65
2023-04-18T15:28:26.689Z,54.84
2023-04-18T15:30:54.039Z,54.70
2023-04-18T15:33:21.863Z,54.78
2023-04-18T15:35:49.120Z,54.81
2023-04-18T15:38:17.662Z,54.82
2023-04-18T15:40:45.120Z,55.00
2023-04-18T15:43:13.761Z,54.93
2023-04-18T15:45:41.135Z,55.05
2023-04-18T15:48:08.444Z,55.11
2023-04-18T15:50:36.577Z,54.95
2023-04-18T15:53:03.802Z,55.03
2023-04-18T15:55:31.073Z,54.97
2023-04-18T15:57:58.275Z,54.90
2023-04-18T16:00:25.661Z,55.00
2023-04-18T16:02:52.983Z,54.87
2023-04-18T16:05:20.250Z,55.03
2023-04-18T16:07:47.532Z,55.04
2023-04-18T16:10:15.386Z,55.04
2023-04-18T16:12:42.737Z,55.05
2023-04-18T16:15:10.546Z,55.06
2023-04-18T16:17:38.250Z,54.96
2023-04-18T16:20:08.153Z,54.97
2023-04-18T16:22:35.897Z,54.85
2023-04-18T16:25:04.185Z,55.05
2023-04-18T16:27:32.204Z,55.09
2023-04-18T16:29:59.557Z,54.84
2023-04-18T16:32:27.017Z,55.06
2023-04-18T16:34:54.385Z,54.81
2023-04-18T16:37:21.722Z,55.01
2023-04-18T16:39:49.062Z,55.16
2023-04-18T16:42:16.467Z,55.15
2023-04-18T16:44:45.280Z,55.22
2023-04-18T16:47:12.525Z,55.13
2023-04-18T16:49:41.258Z,55.33
2023-04-18T16:52:08.578Z,55.54
2023-04-18T16:54:35.917Z,55.33
2023-04-18T16:57:03.415Z,55.34
2023-04-18T16:59:30.924Z,55.75
2023-04-18T17:01:59.697Z,56.10
2023-04-18T17:04:30.401Z,56.23
2023-04-18T17:06:58.007Z,56.14
2023-04-18T17:09:25.339Z,56.30
2023-04-18T17:11:52.600Z,56.34
2023-04-18T17:14:20.789Z,56.21
2023-04-18T17:16:48.850Z,56.23
2023-04-18T17:19:17.530Z,56.40
2023-04-18T17:21:44.879Z,56.10
2023-04-18T17:24:12.234Z,55.91
2023-04-18T17:26:39.917Z,55.89
2023-04-18T17:29:07.830Z,55.88
2023-04-18T17:31:41.272Z,55.46
2023-04-18T17:34:08.766Z,55.38
2023-04-18T17:36:36.069Z,55.48
2023-04-18T17:39:06.647Z,55.24
2023-04-18T17:41:38.595Z,55.50
2023-04-18T17:44:07.664Z,55.41
2023-04-18T17:46:35.203Z,55.07
2023-04-18T17:49:02.604Z,55.15
2023-04-18T17:51:29.904Z,55.29
2023-04-18T17:53:57.129Z,55.29
2023-04-18T17:56:24.455Z,55.00
2023-04-18T17:58:52.327Z,54.94
2023-04-18T18:01:22.292Z,54.93
2023-04-18T18:03:49.877Z,54.89
2023-04-18T18:06:17.305Z,55.05
2023-04-18T18:08:44.603Z,54.99
2023-04-18T18:11:12.050Z,54.24
2023-04-18T18:13:39.384Z,54.01
2023-04-18T18:16:07.722Z,54.53
2023-04-18T18:18:35.262Z,54.61
2023-04-18T18:21:02.536Z,53.64
2023-04-18T18:23:29.824Z,54.15
2023-04-18T18:25:57.118Z,54.65
2023-04-18T18:28:24.453Z,54.90
2023-04-18T18:30:51.877Z,55.01
2023-04-18T18:33:19.187Z,55.54
2023-04-18T18:35:46.434Z,55.22
2023-04-18T18:38:14.005Z,55.04
2023-04-18T18:40:41.245Z,54.71
2023-04-18T18:43:08.526Z,54.69
2023-04-18T18:45:35.939Z,54.74
2023-04-18T18:48:04.080Z,54.82
2023-04-18T18:50:31.537Z,54.86
2023-04-18T18:53:01.702Z,54.73
2023-04-18T18:55:29.931Z,55.07
2023-04-18T18:57:57.154Z,55.08
2023-04-18T19:00:24.858Z,54.79
2023-04-18T19:02:52.400Z,54.56
2023-04-18T19:05:20.084Z,54.57
2023-04-18T19:07:47.378Z,54.78
2023-04-18T19:10:14.746Z,54.74
2023-04-18T19:12:41.999Z,54.95
2023-04-18T19:15:10.458Z,54.75
2023-04-18T19:17:37.789Z,54.73
2023-04-18T19:20:05.694Z,54.80
2023-04-18T19:22:33.137Z,54.91
2023-04-18T19:25:00.812Z,54.87
2023-04-18T19:27:28.186Z,54.82
2023-04-18T19:29:55.538Z,54.76
2023-04-18T19:32:22.915Z,54.94
2023-04-18T19:34:51.511Z,54.75
2023-04-18T19:37:18.786Z,55.03
2023-04-18T19:39:45.980Z,55.23
2023-04-18T19:42:13.225Z,54.76
2023-04-18T19:44:40.568Z,54.49
2023-04-18T19:47:08.060Z,54.36
2023-04-18T19:49:35.319Z,54.43
2023-04-18T19:52:02.694Z,54.28
2023-04-18T19:54:33.331Z,54.22
2023-04-18T19:57:01.378Z,54.56
2023-04-18T19:59:28.638Z,54.69
2023-04-18T20:01:57.823Z,54.40
2023-04-18T20:04:26.920Z,54.32
2023-04-18T20:06:55.498Z,54.18
2023-04-18T20:09:22.945Z,54.79
2023-04-18T20:11:50.333Z,54.69
2023-04-18T20:14:18.126Z,54.56
2023-04-18T20:16:46.685Z,54.72
2023-04-18T20:19:16.971Z,55.22
2023-04-18T20:21:44.529Z,54.56
2023-04-18T20:24:11.866Z,54.85
2023-04-18T20:26:39.146Z,55.43
2023-04-18T20:29:06.463Z,55.34
2023-04-18T20:31:33.920Z,55.44
2023-04-18T20:34:01.126Z,55.13
2023-04-18T20:36:30.339Z,55.23
2023-04-18T20:38:57.959Z,55.23
2023-04-18T20:41:27.026Z,55.01
2023-04-18T20:43:54.327Z,54.89
2023-04-18T20:46:21.805Z,54.81
2023-04-18T20:48:49.065Z,54.92
2023-04-18T20:51:16.371Z,54.69
2023-04-18T20:53:43.757Z,54.88
2023-04-18T20:56:11.147Z,54.93
2023-04-18T20:58:38.388Z,54.82
2023-04-18T21:01:07.064Z,54.57
2023-04-18T21:03:34.592Z,54.75
2023-04-18T21:06:02.345Z,54.53
2023-04-18T21:08:29.945Z,54.48
2023-04-18T21:10:57.223Z,54.72
2023-04-18T21:13:24.594Z,54.37
2023-04-18T21:15:52.087Z,54.34
2023-04-18T21:18:19.467Z,54.54
2023-04-18T21:20:46.822Z,54.46
2023-04-18T21:23:14.194Z,54.37
2023-04-18T21:25:41.608Z,54.28
2023-04-18T21:28:08.942Z,54.27
2023-04-18T21:30:36.583Z,54.11
2023-04-18T21:33:04.047Z,54.28
2023-04-18T21:35:31.556Z,54.06
2023-04-18T21:37:58.807Z,54.20
2023-04-18T21:40:26.939Z,53.81
2023-04-18T21:42:54.175Z,54.06
2023-04-18T21:45:21.551Z,53.56
2023-04-18T21:47:49.668Z,53.87
2023-04-18T21:50:16.964Z,53.81
2023-04-18T21:52:44.221Z,53.96
2023-04-18T21:55:11.584Z,53.83
2023-04-18T21:57:38.915Z,53.48
2023-04-18T22:00:08.565Z,53.83
2023-04-18T22:02:37.652Z,53.53
2023-04-18T22:05:05.665Z,54.18
2023-04-18T22:07:34.186Z,54.36
2023-04-18T22:10:03.749Z,54.13
2023-04-18T22:12:32.209Z,54.47
2023-04-18T22:14:59.697Z,54.18
2023-04-18T22:17:27.105Z,54.19
2023-04-18T22:19:54.749Z,54.26
2023-04-18T22:22:22.041Z,54.34
2023-04-18T22:24:49.327Z,54.09
2023-04-18T22:27:16.691Z,54.04
2023-04-18T22:29:44.037Z,53.81
2023-04-18T22:32:11.356Z,54.00
2023-04-18T22:34:38.689Z,53.90
2023-04-18T22:37:06.279Z,53.78
2023-04-18T22:39:33.526Z,53.61
2023-04-18T22:42:01.003Z,53.92
2023-04-18T22:44:28.241Z,53.72
2023-04-18T22:46:55.662Z,53.53
2023-04-18T22:49:23.256Z,53.57
2023-04-18T22:51:54.329Z,53.54
2023-04-18T22:54:22.240Z,53.41
2023-04-18T22:56:49.992Z,53.75
2023-04-18T22:59:17.696Z,53.50
2023-04-18T23:01:45.782Z,53.32
2023-04-18T23:04:13.379Z,53.43
2023-04-18T23:06:40.915Z,53.11
2023-04-18T23:09:11.355Z,53.41
2023-04-18T23:11:38.681Z,52.54
2023-04-18T23:14:06.506Z,52.21
2023-04-18T23:16:33.764Z,52.08
2023-04-18T23:19:00.962Z,51.76
2023-04-18T23:21:28.915Z,51.44
2023-04-18T23:23:56.201Z,52.78
2023-04-18T23:26:25.281Z,53.07
2023-04-18T23:28:53.149Z,53.34
2023-04-18T23:31:20.381Z,53.25
2023-04-18T23:33:47.681Z,53.19
2023-04-18T23:36:14.957Z,53.12
2023-04-18T23:38:43.708Z,53.13
2023-04-18T23:41:11.011Z,53.30
2023-04-18T23:43:38.283Z,53.02
2023-04-18T23:46:05.657Z,53.04
2023-04-18T23:48:33.003Z,52.99
2023-04-18T23:51:01.241Z,52.94
2023-04-18T23:53:28.517Z,52.90
2023-04-18T23:55:55.828Z,52.77
2023-04-18T23:58:23.152Z,52.82
